Time;durP1;ratioP1;P1;durP2;ratioP2;P2;SDS_P1;SDS_P2;PMS_P1;PMS_P2;Temp;Humidity;BMP_temperature;BMP_pressure;BME280_temperature;BME280_humidity;BME280_pressure;Samples;Min_cycle;Max_cycle;Signal;HPM_P1;HPM_P2
2023/08/12 00:00:20;;;;;;;14.40;6.70;;;;;;;-146.25;100.00;52019.47;2072176;28;20908;-62
2023/08/12 00:01:21;;;;;;;10.93;6.07;;;;;;;-146.25;100.00;52009.31;2072509;28;20034;-63
2023/08/12 00:02:26;;;;;;;16.42;6.55;;;;;;;-146.25;100.00;52013.38;2071585;28;34474;-62
2023/08/12 00:03:30;;;;;;;16.90;6.78;;;;;;;-146.25;100.00;52009.31;2071679;28;32009;-62
2023/08/12 00:04:32;;;;;;;13.30;6.80;;;;;;;-146.25;100.00;52031.63;2072512;28;36359;-62
2023/08/12 00:05:35;;;;;;;14.35;6.50;;;;;;;-146.25;100.00;52027.56;2071371;28;32935;-62
2023/08/12 00:06:37;;;;;;;15.48;7.38;;;;;;;-146.25;100.00;52051.91;2071434;28;34309;-63
2023/08/12 00:07:43;;;;;;;15.68;6.63;;;;;;;-146.25;100.00;52068.13;2071347;28;29291;-62
2023/08/12 00:08:45;;;;;;;11.40;6.68;;;;;;;-146.25;100.00;52041.75;2072823;28;20926;-62
2023/08/12 00:09:49;;;;;;;14.02;7.43;;;;;;;-146.25;100.00;52043.78;2071559;28;37644;-62
2023/08/12 00:10:51;;;;;;;10.93;6.20;;;;;;;-146.25;100.00;52053.94;2071760;28;31355;-63
2023/08/12 00:11:55;;;;;;;12.40;6.32;;;;;;;-146.25;100.00;52027.56;2071849;28;20046;-62
2023/08/12 00:12:56;;;;;;;8.77;5.60;;;;;;;-146.25;100.00;52053.94;2072075;28;36201;-63
2023/08/12 00:13:58;;;;;;;15.20;6.85;;;;;;;-146.25;100.00;52058.00;2072084;28;20165;-63
2023/08/12 00:15:01;;;;;;;9.70;5.78;;;;;;;-146.25;100.00;52064.06;2071673;28;38036;-62
2023/08/12 00:16:03;;;;;;;12.00;6.82;;;;;;;-146.25;100.00;52023.53;2071816;28;26292;-62
2023/08/12 00:17:09;;;;;;;14.55;6.53;;;;;;;-146.25;100.00;52027.56;2072671;28;20045;-62
2023/08/12 00:18:11;;;;;;;10.32;6.50;;;;;;;-146.25;100.00;52045.81;2071454;28;36428;-62
2023/08/12 00:19:13;;;;;;;12.73;5.68;;;;;;;-146.25;100.00;52047.84;2072412;28;20920;-62
2023/08/12 00:20:16;;;;;;;14.65;6.00;;;;;;;-146.25;100.00;51980.94;2071289;28;34348;-63
2023/08/12 00:21:18;;;;;;;16.52;7.03;;;;;;;-146.25;100.00;52031.63;2071830;28;35311;-62
2023/08/12 00:22:20;;;;;;;13.43;6.40;;;;;;;-146.25;100.00;52039.75;2071257;28;37174;-63
2023/08/12 00:23:21;;;;;;;13.27;5.75;;;;;;;-146.25;100.00;51999.19;2071511;28;31502;-62
2023/08/12 00:24:23;;;;;;;12.30;5.65;;;;;;;-146.25;100.00;52035.69;2071537;28;21046;-63
2023/08/12 00:25:25;;;;;;;8.38;5.07;;;;;;;-146.25;100.00;52027.56;2071546;28;33464;-63
2023/08/12 00:26:27;;;;;;;14.88;5.93;;;;;;;-146.25;100.00;52041.75;2071689;28;37305;-63
2023/08/12 00:27:29;;;;;;;9.98;5.05;;;;;;;-146.25;100.00;52031.63;2072079;28;29147;-63
2023/08/12 00:28:31;;;;;;;12.65;5.50;;;;;;;-146.25;100.00;52025.53;2071083;28;20961;-62
2023/08/12 00:29:33;;;;;;;12.30;6.00;;;;;;;-146.25;100.00;52005.28;2071226;28;33389;-62
2023/08/12 00:30:34;;;;;;;14.50;5.82;;;;;;;-146.25;100.00;52049.88;2078829;28;32776;-62
2023/08/12 00:31:36;;;;;;;13.52;6.60;;;;;;;-146.25;100.00;52023.53;2072314;28;22457;-62
2023/08/12 00:32:38;;;;;;;14.30;6.63;;;;;;;-146.25;100.00;52055.97;2070794;28;30958;-62
2023/08/12 00:33:40;;;;;;;14.32;6.00;;;;;;;-146.25;100.00;52045.81;2063034;28;33763;-62
2023/08/12 00:34:42;;;;;;;11.77;6.43;;;;;;;-146.25;100.00;52039.75;2070996;28;28860;-63
2023/08/12 00:35:43;;;;;;;9.38;6.00;;;;;;;-146.25;100.00;52037.72;2071382;28;36807;-62
2023/08/12 00:36:45;;;;;;;17.88;7.22;;;;;;;-146.25;100.00;52066.09;2071423;28;26373;-63
2023/08/12 00:37:54;;;;;;;11.30;5.85;;;;;;;-146.25;100.00;52055.97;2071864;28;28093;-62
2023/08/12 00:38:56;;;;;;;10.32;6.13;;;;;;;-146.25;100.00;52037.72;2072329;28;20042;-63
2023/08/12 00:40:00;;;;;;;12.73;7.53;;;;;;;-146.25;100.00;52062.03;2072014;28;25978;-63
2023/08/12 00:41:03;;;;;;;13.98;7.30;;;;;;;-146.25;100.00;52031.63;2078739;28;27477;-62
2023/08/12 00:42:05;;;;;;;12.18;6.93;;;;;;;-146.25;100.00;52049.88;2079624;28;20181;-62
2023/08/12 00:43:09;;;;;;;11.27;6.68;;;;;;;-146.25;100.00;51997.16;2079210;28;20041;-63
2023/08/12 00:44:12;;;;;;;15.48;7.55;;;;;;;-146.25;100.00;52037.72;2079937;28;20898;-62
2023/08/12 00:45:14;;;;;;;16.52;6.80;;;;;;;-146.25;100.00;52047.84;2071456;28;29163;-63
2023/08/12 00:46:16;;;;;;;10.68;6.55;;;;;;;-146.25;100.00;52045.81;2071569;28;29054;-62
2023/08/12 00:47:18;;;;;;;13.30;6.80;;;;;;;-146.25;100.00;52039.75;2072281;28;20061;-62
2023/08/12 00:48:22;;;;;;;12.63;8.02;;;;;;;-146.25;100.00;52037.72;2072541;28;20085;-62
2023/08/12 00:49:25;;;;;;;9.82;6.32;;;;;;;-146.25;100.00;52047.84;2079144;28;20061;-63
2023/08/12 00:50:29;;;;;;;10.80;6.53;;;;;;;-146.25;100.00;52041.75;2079713;28;20034;-62
2023/08/12 00:51:31;;;;;;;12.15;6.80;;;;;;;-146.25;100.00;52080.28;2062965;28;20528;-63
2023/08/12 00:52:32;;;;;;;10.20;6.65;;;;;;;-146.25;100.00;52076.22;2063186;28;20150;-63
2023/08/12 00:53:34;;;;;;;13.77;7.57;;;;;;;-146.25;100.00;52045.81;2070945;28;26853;-63
2023/08/12 00:54:36;;;;;;;13.75;6.93;;;;;;;-146.25;100.00;52043.78;2055198;28;20082;-62
2023/08/12 00:55:40;;;;;;;10.82;7.00;;;;;;;-146.25;100.00;52090.44;2054456;28;29175;-63
2023/08/12 00:56:45;;;;;;;10.13;6.63;;;;;;;-146.25;100.00;52078.25;2063129;28;32280;-62
2023/08/12 00:57:47;;;;;;;12.70;7.07;;;;;;;-146.25;100.00;52007.31;2071408;28;20047;-63
2023/08/12 00:58:49;;;;;;;16.00;6.88;;;;;;;-146.25;100.00;52039.75;2062740;28;26385;-62
2023/08/12 00:59:52;;;;;;;13.52;7.68;;;;;;;-146.25;100.00;52041.75;2055139;28;33293;-62
2023/08/12 01:00:54;;;;;;;12.43;7.30;;;;;;;-146.25;100.00;52041.75;2063680;28;20039;-62
2023/08/12 01:01:56;;;;;;;14.10;8.23;;;;;;;-146.25;100.00;52084.34;2063140;28;28792;-63
2023/08/12 01:03:00;;;;;;;14.48;7.85;;;;;;;-146.25;100.00;52072.19;2071070;28;21959;-62
2023/08/12 01:04:05;;;;;;;16.92;8.82;;;;;;;-146.25;100.00;52047.84;2071278;28;20047;-63
2023/08/12 01:05:08;;;;;;;18.27;8.13;;;;;;;-146.25;100.00;52068.13;2063544;28;33064;-63
2023/08/12 01:06:09;;;;;;;15.65;7.70;;;;;;;-146.25;100.00;52051.91;2062325;28;20051;-63
2023/08/12 01:07:11;;;;;;;16.83;7.68;;;;;;;-146.25;100.00;52080.28;2071407;28;20046;-62
2023/08/12 01:08:13;;;;;;;12.85;8.07;;;;;;;-146.25;100.00;52049.88;2071220;28;35665;-62
2023/08/12 01:09:15;;;;;;;12.30;7.47;;;;;;;-146.25;100.00;52031.63;2070517;28;27919;-62
2023/08/12 01:10:17;;;;;;;14.23;8.48;;;;;;;-146.25;100.00;52029.59;2062841;28;27432;-62
2023/08/12 01:11:36;;;;;;;13.13;8.57;;;;;;;-146.25;100.00;52047.84;2070689;28;30727;-62
2023/08/12 01:12:56;;;;;;;16.88;8.13;;;;;;;-146.25;100.00;52035.69;2071578;28;20030;-62
2023/08/12 01:14:18;;;;;;;15.45;8.13;;;;;;;-146.25;100.00;52031.63;2072438;28;20165;-62
2023/08/12 01:15:23;;;;;;;13.95;8.70;;;;;;;-146.25;100.00;52031.63;2070411;28;26770;-65
2023/08/12 01:16:30;;;;;;;15.35;8.70;;;;;;;-146.25;100.00;52043.78;2070960;28;30915;-64
2023/08/12 01:17:35;;;;;;;14.75;8.52;;;;;;;-146.25;100.00;52076.22;2071604;28;20868;-63
2023/08/12 01:18:39;;;;;;;13.68;8.40;;;;;;;-146.25;100.00;52084.34;2064279;28;32560;-63
2023/08/12 01:19:43;;;;;;;21.63;10.20;;;;;;;-146.25;100.00;52076.22;2063590;28;30230;-63
2023/08/12 01:20:46;;;;;;;17.42;11.13;;;;;;;-146.25;100.00;52062.03;2062841;28;24521;-62
2023/08/12 01:21:51;;;;;;;16.77;9.70;;;;;;;-146.25;100.00;52066.09;2055112;28;30385;-62
2023/08/12 01:23:08;;;;;;;15.07;9.88;;;;;;;-146.25;100.00;52064.06;2055935;28;27306;-62
2023/08/12 01:24:11;;;;;;;18.02;10.02;;;;;;;-146.25;100.00;52055.97;2071978;28;20188;-64
2023/08/12 01:25:13;;;;;;;14.63;9.65;;;;;;;-146.25;100.00;52068.13;2071522;28;25088;-64
2023/08/12 01:26:15;;;;;;;17.50;10.13;;;;;;;-146.25;100.00;52043.78;2070381;28;24646;-64
2023/08/12 01:27:17;;;;;;;16.15;10.90;;;;;;;-146.25;100.00;52035.69;2071074;28;20915;-63
2023/08/12 01:28:19;;;;;;;13.57;10.15;;;;;;;-146.25;100.00;52039.75;2071904;28;20050;-63
2023/08/12 01:29:21;;;;;;;15.73;10.50;;;;;;;-146.25;100.00;52031.63;2070759;28;28475;-63
2023/08/12 01:30:23;;;;;;;17.27;10.52;;;;;;;-146.25;100.00;52047.84;2070843;28;34159;-63
2023/08/12 01:31:40;;;;;;;18.15;10.48;;;;;;;-146.25;100.00;52021.50;2079235;28;20030;-63
2023/08/12 01:32:58;;;;;;;16.45;9.60;;;;;;;-146.25;100.00;52041.75;2071092;28;31419;-64
2023/08/12 01:34:21;;;;;;;16.85;10.68;;;;;;;-146.25;100.00;52072.19;2058912;28;20055;-66
2023/08/12 01:35:40;;;;;;;15.18;10.63;;;;;;;-146.25;100.00;52043.78;2062901;28;20047;-64
2023/08/12 01:36:54;;;;;;;16.02;11.15;;;;;;;-146.25;100.00;52051.91;2067919;28;20049;-65
2023/08/12 01:37:59;;;;;;;17.52;11.38;;;;;;;-146.25;100.00;52039.75;2066030;28;20084;-65
2023/08/12 01:39:01;;;;;;;15.98;12.40;;;;;;;-146.25;100.00;52051.91;2071284;28;22965;-65
2023/08/12 01:40:09;;;;;;;16.80;11.57;;;;;;;-146.25;100.00;52015.41;2071163;28;20183;-65
2023/08/12 01:41:12;;;;;;;21.70;12.90;;;;;;;-146.25;100.00;52078.25;2070553;28;31471;-66
2023/08/12 01:42:16;;;;;;;18.52;11.52;;;;;;;-146.25;100.00;52031.63;2070400;28;31020;-67
2023/08/12 01:43:21;;;;;;;17.17;12.18;;;;;;;-146.25;100.00;52015.41;2063522;28;25955;-68
2023/08/12 01:44:23;;;;;;;18.52;13.20;;;;;;;-146.25;100.00;52035.69;2062888;28;28781;-68
2023/08/12 01:45:27;;;;;;;20.70;14.25;;;;;;;-146.25;100.00;52060.00;2063454;28;20125;-67
2023/08/12 01:46:29;;;;;;;17.33;13.30;;;;;;;-146.25;100.00;52053.94;2055143;28;20196;-67
2023/08/12 01:47:32;;;;;;;20.27;15.50;;;;;;;-146.25;100.00;52023.53;2062861;28;32983;-65
2023/08/12 01:48:33;;;;;;;20.27;15.68;;;;;;;-146.25;100.00;52039.75;2070895;28;26716;-66
2023/08/12 01:49:41;;;;;;;22.33;14.18;;;;;;;-146.25;100.00;52025.53;2071568;28;20101;-67
2023/08/12 01:50:47;;;;;;;21.35;16.00;;;;;;;-146.25;100.00;52068.13;2071505;28;32049;-67
2023/08/12 01:51:51;;;;;;;22.50;15.75;;;;;;;-146.25;100.00;52043.78;2071618;28;22000;-68
2023/08/12 01:52:53;;;;;;;19.92;15.65;;;;;;;-146.25;100.00;52023.53;2078652;28;34644;-66
2023/08/12 01:53:57;;;;;;;21.88;16.83;;;;;;;-146.25;100.00;52035.69;2078994;28;20049;-67
2023/08/12 01:54:59;;;;;;;21.92;16.10;;;;;;;-146.25;100.00;52009.31;2070392;28;27038;-66
2023/08/12 01:56:01;;;;;;;23.48;16.80;;;;;;;-146.25;100.00;52005.28;2070488;28;25878;-67
2023/08/12 01:57:07;;;;;;;22.75;16.80;;;;;;;-146.25;100.00;52017.44;2079180;28;20084;-67
2023/08/12 01:58:10;;;;;;;19.60;14.60;;;;;;;-146.25;100.00;52029.59;2071109;28;20089;-67
2023/08/12 01:59:11;;;;;;;26.30;17.75;;;;;;;-146.25;100.00;52027.56;2070816;28;22431;-67
2023/08/12 02:00:16;;;;;;;25.98;17.90;;;;;;;-146.25;100.00;52031.63;2070051;28;20208;-67
2023/08/12 02:01:17;;;;;;;22.75;16.95;;;;;;;-146.25;100.00;52023.53;2078443;28;39449;-68
2023/08/12 02:02:19;;;;;;;22.40;18.40;;;;;;;-146.25;100.00;52031.63;2079204;28;20176;-68
2023/08/12 02:03:21;;;;;;;24.92;17.33;;;;;;;-146.25;100.00;52015.41;2078805;28;27706;-67
2023/08/12 02:04:23;;;;;;;23.00;17.30;;;;;;;-146.25;100.00;52029.59;2079724;28;22209;-67
2023/08/12 02:05:27;;;;;;;33.08;20.30;;;;;;;-146.25;100.00;52021.50;2080004;28;20050;-67
2023/08/12 02:06:29;;;;;;;27.40;18.73;;;;;;;-146.25;100.00;52003.25;2079323;28;30334;-67
2023/08/12 02:07:30;;;;;;;26.27;18.92;;;;;;;-146.25;100.00;51968.78;2078495;28;35592;-67
2023/08/12 02:08:34;;;;;;;28.60;20.83;;;;;;;-146.25;100.00;51991.09;2080353;28;20112;-67
2023/08/12 02:09:38;;;;;;;28.70;19.25;;;;;;;-146.25;100.00;52011.34;2071539;28;20641;-67
2023/08/12 02:10:41;;;;;;;31.25;19.88;;;;;;;-146.25;100.00;52029.59;2069134;28;20039;-67
2023/08/12 02:11:42;;;;;;;32.67;20.60;;;;;;;-146.25;100.00;52037.72;2071945;28;20133;-68
2023/08/12 02:12:44;;;;;;;30.83;20.35;;;;;;;-146.25;100.00;52009.31;2072342;28;20124;-67
2023/08/12 02:13:46;;;;;;;27.25;19.48;;;;;;;-146.25;100.00;52021.50;2072936;28;20296;-67
2023/08/12 02:14:48;;;;;;;26.33;18.25;;;;;;;-146.25;100.00;52043.78;2080397;28;20106;-67
2023/08/12 02:15:50;;;;;;;26.65;19.00;;;;;;;-146.25;100.00;51999.19;2072507;28;20171;-67
2023/08/12 02:16:51;;;;;;;28.00;18.95;;;;;;;-146.25;100.00;52015.41;2071910;28;29610;-67
2023/08/12 02:17:55;;;;;;;24.17;15.27;;;;;;;-146.25;100.00;52003.25;2080301;28;25441;-67
2023/08/12 02:18:57;;;;;;;22.50;15.50;;;;;;;-146.25;100.00;51987.03;2073282;28;20086;-67
2023/08/12 02:19:59;;;;;;;22.48;15.85;;;;;;;-146.25;100.00;52029.59;2072944;28;20034;-66
2023/08/12 02:21:01;;;;;;;25.30;15.95;;;;;;;-146.25;100.00;52039.75;2073156;28;20188;-66
2023/08/12 02:22:03;;;;;;;22.95;17.38;;;;;;;-146.25;100.00;52015.41;2072504;28;27176;-66
2023/08/12 02:23:05;;;;;;;23.90;16.20;;;;;;;-146.25;100.00;51995.13;2071989;28;20769;-65
2023/08/12 02:24:08;;;;;;;22.55;16.50;;;;;;;-146.25;100.00;52051.91;2072546;28;20042;-65
2023/08/12 02:25:11;;;;;;;22.92;15.85;;;;;;;-146.25;100.00;52035.69;2072978;28;20169;-66
2023/08/12 02:26:13;;;;;;;22.90;15.40;;;;;;;-146.25;100.00;52023.53;2072646;28;20626;-66
2023/08/12 02:27:18;;;;;;;20.60;13.13;;;;;;;-146.25;100.00;52035.69;2072982;28;21362;-66
2023/08/12 02:28:20;;;;;;;20.33;12.95;;;;;;;-146.25;100.00;52029.59;2063463;28;31090;-66
2023/08/12 02:29:21;;;;;;;20.10;14.13;;;;;;;-146.25;100.00;52019.47;2064252;28;30956;-66
2023/08/12 02:30:24;;;;;;;16.75;12.55;;;;;;;-146.25;100.00;52051.91;2072051;28;20054;-66
2023/08/12 02:31:25;;;;;;;18.25;12.82;;;;;;;-146.25;100.00;52025.53;2063724;28;26226;-66
2023/08/12 02:32:28;;;;;;;15.88;10.27;;;;;;;-146.25;100.00;52015.41;2072463;28;20857;-66
2023/08/12 02:33:30;;;;;;;16.63;10.77;;;;;;;-146.25;100.00;52035.69;2072462;28;30975;-66
2023/08/12 02:34:31;;;;;;;12.82;8.93;;;;;;;-146.25;100.00;52037.72;2080487;28;20615;-65
2023/08/12 02:35:33;;;;;;;14.82;9.32;;;;;;;-146.25;100.00;52037.72;2072154;28;20039;-66
2023/08/12 02:36:38;;;;;;;15.50;11.02;;;;;;;-146.25;100.00;52035.69;2056371;28;20849;-66
2023/08/12 02:37:39;;;;;;;18.90;12.13;;;;;;;-146.25;100.00;52039.75;2056089;28;24431;-66
2023/08/12 02:38:41;;;;;;;18.92;11.32;;;;;;;-146.25;100.00;52013.38;2063041;28;21006;-67
2023/08/12 02:39:43;;;;;;;17.38;11.10;;;;;;;-146.25;100.00;52003.25;2072404;28;20998;-66
2023/08/12 02:40:49;;;;;;;16.13;11.32;;;;;;;-146.25;100.00;52023.53;2079643;28;31875;-65
2023/08/12 02:41:50;;;;;;;18.80;12.18;;;;;;;-146.25;100.00;52017.44;2071128;28;31136;-65
2023/08/12 02:42:52;;;;;;;17.27;11.63;;;;;;;-146.25;100.00;52051.91;2064405;28;20195;-66
2023/08/12 02:43:54;;;;;;;17.55;11.02;;;;;;;-146.25;100.00;52035.69;2071926;28;29740;-66
2023/08/12 02:44:56;;;;;;;17.55;11.07;;;;;;;-146.25;100.00;52015.41;2080275;28;20101;-65
2023/08/12 02:46:00;;;;;;;18.27;10.88;;;;;;;-146.25;100.00;52003.25;2079900;28;31740;-65
2023/08/12 02:47:02;;;;;;;14.88;10.55;;;;;;;-146.25;100.00;52058.00;2080142;28;20042;-65
2023/08/12 02:48:04;;;;;;;17.50;11.10;;;;;;;-146.25;100.00;51999.19;2072602;28;21891;-65
2023/08/12 02:49:06;;;;;;;17.30;10.95;;;;;;;-146.25;100.00;52058.00;2072146;28;31707;-65
2023/08/12 02:50:08;;;;;;;16.77;10.85;;;;;;;-146.25;100.00;52035.69;2071975;28;21322;-65
2023/08/12 02:51:10;;;;;;;17.88;10.93;;;;;;;-146.25;100.00;52019.47;2071965;28;20043;-65
2023/08/12 02:52:12;;;;;;;16.38;11.45;;;;;;;-146.25;100.00;52058.00;2072192;28;20129;-65
2023/08/12 02:53:15;;;;;;;18.45;11.95;;;;;;;-146.25;100.00;52039.75;2071416;28;29582;-65
2023/08/12 02:54:17;;;;;;;16.00;10.73;;;;;;;-146.25;100.00;52003.25;2080070;28;20971;-65
2023/08/12 02:55:19;;;;;;;17.05;10.70;;;;;;;-146.25;100.00;52031.63;2072785;28;20042;-64
2023/08/12 02:56:21;;;;;;;13.68;10.25;;;;;;;-146.25;100.00;52031.63;2071238;28;30835;-65
2023/08/12 02:57:22;;;;;;;18.45;11.20;;;;;;;-146.25;100.00;52011.34;2064075;28;20827;-65
2023/08/12 02:58:26;;;;;;;18.60;11.60;;;;;;;-146.25;100.00;52051.91;2071341;28;26974;-65
2023/08/12 02:59:29;;;;;;;21.60;10.90;;;;;;;-146.25;100.00;52003.25;2071698;28;22870;-65
2023/08/12 03:00:31;;;;;;;19.83;11.60;;;;;;;-146.25;100.00;52058.00;2072155;28;20042;-65
2023/08/12 03:01:33;;;;;;;17.67;10.85;;;;;;;-146.25;100.00;52037.72;2072787;28;20043;-65
2023/08/12 03:02:35;;;;;;;15.13;9.77;;;;;;;-146.25;100.00;52051.91;2071754;28;20051;-65
2023/08/12 03:03:37;;;;;;;20.20;11.77;;;;;;;-146.25;100.00;52090.44;2071877;28;26282;-66
2023/08/12 03:04:38;;;;;;;14.45;10.40;;;;;;;-146.25;100.00;52041.75;2073298;28;20085;-65
2023/08/12 03:05:40;;;;;;;17.67;9.73;;;;;;;-146.25;100.00;52023.53;2071567;28;20081;-65
2023/08/12 03:06:42;;;;;;;14.43;8.85;;;;;;;-146.25;100.00;52051.91;2072131;28;20928;-65
2023/08/12 03:07:44;;;;;;;14.95;9.20;;;;;;;-146.25;100.00;52021.50;2072214;28;20077;-65
2023/08/12 03:08:46;;;;;;;22.48;10.65;;;;;;;-146.25;100.00;52055.97;2072188;28;20926;-66
2023/08/12 03:09:49;;;;;;;13.35;9.55;;;;;;;-146.25;100.00;52007.31;2071888;28;20035;-66
2023/08/12 03:10:59;;;;;;;12.98;9.48;;;;;;;-146.25;100.00;52031.63;2079711;28;20042;-66
2023/08/12 03:12:02;;;;;;;15.45;9.57;;;;;;;-146.25;100.00;52074.22;2070807;28;20892;-67
2023/08/12 03:13:04;;;;;;;14.23;8.57;;;;;;;-146.25;100.00;52068.13;2072091;28;20942;-67
2023/08/12 03:14:09;;;;;;;16.05;9.43;;;;;;;-146.25;100.00;52035.69;2072077;28;20089;-66
2023/08/12 03:15:11;;;;;;;16.00;8.82;;;;;;;-146.25;100.00;52058.00;2064045;28;20911;-67
2023/08/12 03:16:14;;;;;;;17.08;9.57;;;;;;;-146.25;100.00;52039.75;2071655;28;26618;-67
2023/08/12 03:17:18;;;;;;;14.43;8.90;;;;;;;-146.25;100.00;52049.88;2071970;28;20046;-66
2023/08/12 03:18:20;;;;;;;18.00;9.02;;;;;;;-146.25;100.00;52080.28;2071527;28;20887;-65
2023/08/12 03:19:22;;;;;;;16.05;8.88;;;;;;;-146.25;100.00;52062.03;2079946;28;25053;-65
2023/08/12 03:20:24;;;;;;;13.75;9.07;;;;;;;-146.25;100.00;52049.88;2079901;28;20050;-65
2023/08/12 03:21:26;;;;;;;15.60;9.57;;;;;;;-146.25;100.00;52053.94;2079948;28;20046;-65
2023/08/12 03:22:28;;;;;;;17.45;9.15;;;;;;;-146.25;100.00;52027.56;2072785;28;20045;-65
2023/08/12 03:23:32;;;;;;;14.40;9.68;;;;;;;-146.25;100.00;52055.97;2080175;28;20916;-65
2023/08/12 03:24:34;;;;;;;16.88;10.02;;;;;;;-146.25;100.00;52076.22;2071783;28;20042;-65
2023/08/12 03:25:36;;;;;;;14.68;8.93;;;;;;;-146.25;100.00;52062.03;2071739;28;20158;-65
2023/08/12 03:26:37;;;;;;;18.20;9.43;;;;;;;-146.25;100.00;52011.34;2079568;28;20977;-66
2023/08/12 03:27:40;;;;;;;13.68;9.63;;;;;;;-146.25;100.00;52031.63;2072400;28;20049;-66
2023/08/12 03:28:43;;;;;;;15.00;8.70;;;;;;;-146.25;100.00;52047.84;2072193;28;20050;-65
2023/08/12 03:29:49;;;;;;;17.02;10.00;;;;;;;-146.25;100.00;52029.59;2071853;28;20765;-66
2023/08/12 03:30:53;;;;;;;14.57;9.55;;;;;;;-146.25;100.00;52013.38;2071526;28;20192;-65
2023/08/12 03:31:58;;;;;;;16.85;9.85;;;;;;;-146.25;100.00;52051.91;2071827;28;20054;-66
2023/08/12 03:33:00;;;;;;;15.82;9.68;;;;;;;-146.25;100.00;52062.03;2063932;28;20117;-66
2023/08/12 03:34:05;;;;;;;16.08;10.18;;;;;;;-146.25;100.00;52055.97;2063485;28;20923;-65
2023/08/12 03:35:10;;;;;;;17.58;10.43;;;;;;;-146.25;100.00;52023.53;2064234;28;20125;-67
2023/08/12 03:36:15;;;;;;;20.13;11.55;;;;;;;-146.25;100.00;51989.06;2064504;28;21001;-66
2023/08/12 03:37:18;;;;;;;16.55;9.82;;;;;;;-146.25;100.00;52043.78;2064612;28;20157;-66
2023/08/12 03:38:22;;;;;;;19.17;10.30;;;;;;;-146.25;100.00;52070.16;2064341;28;20093;-65
2023/08/12 03:39:26;;;;;;;15.38;10.48;;;;;;;-146.25;100.00;52060.00;2063685;28;20121;-66
2023/08/12 03:40:29;;;;;;;21.45;11.27;;;;;;;-146.25;100.00;52049.88;2072074;28;20069;-66
2023/08/12 03:41:31;;;;;;;16.67;11.00;;;;;;;-146.25;100.00;52039.75;2063123;28;20039;-66
2023/08/12 03:42:41;;;;;;;19.88;10.05;;;;;;;-146.25;100.00;52064.06;2064397;28;20047;-66
2023/08/12 03:43:43;;;;;;;16.65;9.93;;;;;;;-146.25;100.00;52041.75;2070823;28;20058;-66
2023/08/12 03:44:45;;;;;;;20.50;12.00;;;;;;;-146.25;100.00;52068.13;2070279;28;20035;-65
2023/08/12 03:45:47;;;;;;;14.48;11.57;;;;;;;-146.25;100.00;52047.84;2071675;28;20093;-66
2023/08/12 03:46:52;;;;;;;18.85;11.52;;;;;;;-146.25;100.00;52047.84;2071599;28;20042;-66
2023/08/12 03:47:56;;;;;;;18.38;10.60;;;;;;;-146.25;100.00;52009.31;2071957;28;20166;-65
2023/08/12 03:48:58;;;;;;;19.30;11.63;;;;;;;-146.25;100.00;52031.63;2071695;28;20038;-65
2023/08/12 03:50:00;;;;;;;19.52;12.50;;;;;;;-146.25;100.00;52033.66;2072197;28;20102;-65
2023/08/12 03:51:03;;;;;;;19.40;12.32;;;;;;;-146.25;100.00;52051.91;2063321;28;20051;-64
2023/08/12 03:52:06;;;;;;;23.33;12.23;;;;;;;-146.25;100.00;52045.81;2071287;28;27517;-64
2023/08/12 03:53:08;;;;;;;20.33;11.80;;;;;;;-146.25;100.00;52027.56;2063394;28;21038;-65
2023/08/12 03:54:13;;;;;;;16.23;12.15;;;;;;;-146.25;100.00;52045.81;2064541;28;20070;-64
2023/08/12 03:55:15;;;;;;;22.15;12.30;;;;;;;-146.25;100.00;52076.22;2071378;28;20180;-64
2023/08/12 03:56:17;;;;;;;19.92;12.43;;;;;;;-146.25;100.00;52039.75;2070659;28;20160;-63
2023/08/12 03:57:19;;;;;;;18.70;12.02;;;;;;;-146.25;100.00;52051.91;2071234;28;20058;-64
2023/08/12 03:58:21;;;;;;;18.02;11.57;;;;;;;-146.25;100.00;52031.63;2071712;28;20051;-65
2023/08/12 03:59:23;;;;;;;21.55;12.95;;;;;;;-146.25;100.00;52005.28;2071657;28;20042;-64
2023/08/12 04:00:25;;;;;;;19.40;11.98;;;;;;;-146.25;100.00;52045.81;2071625;28;20069;-65
2023/08/12 04:01:34;;;;;;;21.58;13.90;;;;;;;-146.25;100.00;52068.13;2064139;28;21029;-65
2023/08/12 04:02:36;;;;;;;19.83;12.02;;;;;;;-146.25;100.00;52104.63;2071779;28;20788;-65
2023/08/12 04:03:38;;;;;;;19.80;12.95;;;;;;;-146.25;100.00;52078.25;2072532;28;20035;-66
2023/08/12 04:04:40;;;;;;;20.98;12.23;;;;;;;-146.25;100.00;52029.59;2072271;28;28046;-65
2023/08/12 04:05:52;;;;;;;18.17;10.48;;;;;;;-146.25;100.00;52064.06;2071623;28;20150;-65
2023/08/12 04:06:54;;;;;;;20.05;13.00;;;;;;;-146.25;100.00;52027.56;2064874;28;20043;-65
2023/08/12 04:07:56;;;;;;;18.58;12.45;;;;;;;-146.25;100.00;52045.81;2070998;28;31195;-65
2023/08/12 04:08:58;;;;;;;21.00;13.82;;;;;;;-146.25;100.00;52068.13;2071730;28;20078;-65
2023/08/12 04:10:00;;;;;;;18.02;12.52;;;;;;;-146.25;100.00;52043.78;2063355;28;20046;-65
2023/08/12 04:11:02;;;;;;;20.17;13.05;;;;;;;-146.25;100.00;52070.16;2070947;28;30113;-65
2023/08/12 04:12:04;;;;;;;20.85;12.05;;;;;;;-146.25;100.00;52078.25;2071683;28;24373;-65
2023/08/12 04:13:08;;;;;;;17.50;11.07;;;;;;;-146.25;100.00;52070.16;2071542;28;20947;-65
2023/08/12 04:14:09;;;;;;;19.88;11.90;;;;;;;-146.25;100.00;52033.66;2071136;28;26688;-65
2023/08/12 04:15:11;;;;;;;17.42;12.10;;;;;;;-146.25;100.00;52094.47;2071384;28;20090;-65
2023/08/12 04:16:13;;;;;;;18.13;12.13;;;;;;;-146.25;100.00;52033.66;2071472;28;22681;-65
2023/08/12 04:17:15;;;;;;;20.90;11.77;;;;;;;-146.25;100.00;52060.00;2072094;28;23568;-66
2023/08/12 04:18:18;;;;;;;19.45;12.25;;;;;;;-146.25;100.00;52055.97;2079193;28;20799;-66
2023/08/12 04:19:19;;;;;;;18.63;12.30;;;;;;;-146.25;100.00;52064.06;2071640;28;22551;-65
2023/08/12 04:20:22;;;;;;;16.30;11.77;;;;;;;-146.25;100.00;52043.78;2055433;28;20114;-65
2023/08/12 04:21:26;;;;;;;16.17;11.43;;;;;;;-146.25;100.00;52064.06;2063541;28;21752;-65
2023/08/12 04:22:28;;;;;;;17.45;10.45;;;;;;;-146.25;100.00;52035.69;2078986;28;38600;-64
2023/08/12 04:23:30;;;;;;;15.55;10.90;;;;;;;-146.25;100.00;52043.78;2071389;28;20046;-64
2023/08/12 04:24:32;;;;;;;14.45;10.48;;;;;;;-146.25;100.00;52027.56;2071290;28;20089;-64
2023/08/12 04:25:33;;;;;;;16.48;10.75;;;;;;;-146.25;100.00;52047.84;2079545;28;23965;-64
2023/08/12 04:26:37;;;;;;;14.25;10.25;;;;;;;-146.25;100.00;52027.56;2071904;28;20049;-64
2023/08/12 04:27:42;;;;;;;18.65;10.90;;;;;;;-146.25;100.00;52051.91;2071714;28;20935;-64
2023/08/12 04:28:46;;;;;;;15.00;8.93;;;;;;;-146.25;100.00;52043.78;2064078;28;20054;-64
2023/08/12 04:29:48;;;;;;;17.23;10.05;;;;;;;-146.25;100.00;52084.34;2070929;28;20958;-65
2023/08/12 04:30:53;;;;;;;17.05;10.85;;;;;;;-146.25;100.00;52045.81;2070827;28;20057;-64
2023/08/12 04:31:56;;;;;;;17.30;11.35;;;;;;;-146.25;100.00;52047.84;2071989;28;20058;-64
2023/08/12 04:32:58;;;;;;;15.75;10.60;;;;;;;-146.25;100.00;52076.22;2071531;28;20050;-64
2023/08/12 04:34:03;;;;;;;16.75;11.55;;;;;;;-146.25;100.00;52035.69;2071715;28;20543;-65
2023/08/12 04:35:07;;;;;;;16.02;10.55;;;;;;;-146.25;100.00;52080.28;2079630;28;20068;-64
2023/08/12 04:36:13;;;;;;;15.65;9.77;;;;;;;-146.25;100.00;52055.97;2079629;28;20147;-63
2023/08/12 04:37:15;;;;;;;15.32;10.60;;;;;;;-146.25;100.00;52053.94;2070986;28;20046;-63
2023/08/12 04:38:18;;;;;;;11.68;8.60;;;;;;;-146.25;100.00;52070.16;2071792;28;20142;-65
2023/08/12 04:39:22;;;;;;;15.52;9.93;;;;;;;-146.25;100.00;52070.16;2071434;28;20819;-64
2023/08/12 04:40:24;;;;;;;15.10;8.65;;;;;;;-146.25;100.00;52080.28;2071679;28;20558;-64
2023/08/12 04:41:25;;;;;;;13.10;8.30;;;;;;;-146.25;100.00;52088.41;2070765;28;20816;-64
2023/08/12 04:42:28;;;;;;;13.88;9.48;;;;;;;-146.25;100.00;52074.22;2063278;28;20046;-64